Time,TemperatureF,DewpointF,PressureIn,WindDirection,WindDirectionDegrees,WindSpeedMPH,WindSpeedGustMPH,Humidity,HourlyPrecipIn,Conditions,Clouds,dailyrainin,SoftwareType,DateUTC
2013-01-13 00:03:00,54.0,52.0,-100.00,NW,323,1.0,1.0,96,0.00,,,0.00,,2013-01-13 05:03:00,
2013-01-13 00:12:00,54.0,52.0,-100.00,NW,323,1.0,1.0,96,0.00,,,0.00,,2013-01-13 05:12:00,
2013-01-13 00:23:00,52.0,51.0,-100.00,North,0,1.0,2.0,96,0.00,,,0.00,,2013-01-13 05:23:00,
2013-01-13 00:32:00,52.0,51.0,-100.00,North,0,1.0,2.0,96,0.00,,,0.00,,2013-01-13 05:32:00,
2013-01-13 00:42:00,52.0,51.0,-100.00,North,0,1.0,2.0,96,0.00,,,0.00,,2013-01-13 05:42:00,
2013-01-13 00:53:00,53.0,53.0,-100.00,North,1,1.0,2.0,97,0.00,,,0.00,,2013-01-13 05:53:00,
2013-01-13 01:03:00,53.0,52.0,-100.00,WNW,289,1.0,2.0,97,0.00,,,0.00,,2013-01-13 06:03:00,
2013-01-13 01:12:00,53.0,52.0,-100.00,WNW,289,1.0,2.0,97,0.00,,,0.00,,2013-01-13 06:12:00,
2013-01-13 01:22:00,53.0,52.0,-100.00,SW,224,3.0,4.0,97,0.00,,,0.00,,2013-01-13 06:22:00,
2013-01-13 01:32:00,53.0,52.0,-100.00,SW,224,3.0,4.0,97,0.00,,,0.00,,2013-01-13 06:32:00,
2013-01-13 01:42:00,54.0,54.0,-100.00,WSW,254,3.0,5.0,97,0.00,,,0.00,,2013-01-13 06:42:00,
2013-01-13 01:52:00,54.0,54.0,-100.00,WSW,254,3.0,5.0,97,0.00,,,0.00,,2013-01-13 06:52:00,
2013-01-13 02:02:00,56.0,55.0,-100.00,SW,217,3.0,4.0,97,0.00,,,0.00,,2013-01-13 07:02:00,
2013-01-13 02:12:00,56.0,55.0,-100.00,SW,217,3.0,4.0,97,0.00,,,0.00,,2013-01-13 07:12:00,
2013-01-13 02:22:00,54.0,54.0,-100.00,SW,230,2.0,3.0,97,0.00,,,0.00,,2013-01-13 07:22:00,
2013-01-13 02:32:00,57.0,56.0,-100.00,SSW,210,4.0,6.0,97,0.00,,,0.00,,2013-01-13 07:32:00,
2013-01-13 02:42:00,57.0,56.0,-100.00,SSW,210,4.0,6.0,97,0.00,,,0.00,,2013-01-13 07:42:00,
2013-01-13 02:53:00,57.0,56.0,-100.00,SSW,210,4.0,6.0,97,0.00,,,0.00,,2013-01-13 07:53:00,
2013-01-13 03:02:00,56.0,55.0,-100.00,SSW,192,4.0,4.0,97,0.00,,,0.00,,2013-01-13 08:02:00,
2013-01-13 03:12:00,56.0,55.0,-100.00,SSW,192,4.0,4.0,97,0.00,,,0.00,,2013-01-13 08:12:00,
2013-01-13 03:22:00,56.0,55.0,-100.00,SW,215,3.0,4.0,97,0.00,,,0.00,,2013-01-13 08:22:00,
2013-01-13 03:32:00,56.0,55.0,-100.00,SW,227,2.0,3.0,97,0.00,,,0.00,,2013-01-13 08:32:00,
2013-01-13 03:42:00,56.0,55.0,-100.00,SW,227,2.0,3.0,97,0.00,,,0.00,,2013-01-13 08:42:00,
2013-01-13 03:53:00,56.0,55.0,-100.00,SW,227,2.0,3.0,97,0.00,,,0.00,,2013-01-13 08:53:00,
2013-01-13 04:02:00,56.0,55.0,-100.00,West,261,1.0,2.0,97,0.00,,,0.00,,2013-01-13 09:02:00,
2013-01-13 04:12:00,56.0,55.0,-100.00,West,261,1.0,2.0,97,0.00,,,0.00,,2013-01-13 09:12:00,
2013-01-13 04:22:00,55.0,54.0,-100.00,WNW,282,0.0,1.0,97,0.00,,,0.00,,2013-01-13 09:22:00,
2013-01-13 04:32:00,56.0,56.0,-100.00,SSW,202,3.0,5.0,97,0.00,,,0.00,,2013-01-13 09:32:00,
2013-01-13 04:42:00,56.0,56.0,-100.00,SSW,202,3.0,5.0,97,0.00,,,0.00,,2013-01-13 09:42:00,
2013-01-13 04:53:00,57.0,56.0,-100.00,SSW,209,4.0,6.0,97,0.00,,,0.00,,2013-01-13 09:53:00,
2013-01-13 05:03:00,57.0,56.0,-100.00,SSW,209,4.0,6.0,97,0.00,,,0.00,,2013-01-13 10:03:00,
2013-01-13 05:12:00,57.0,56.0,-100.00,SSW,209,4.0,6.0,97,0.00,,,0.00,,2013-01-13 10:12:00,
2013-01-13 05:22:00,56.0,56.0,-100.00,SW,234,4.0,5.0,97,0.00,,,0.00,,2013-01-13 10:22:00,
2013-01-13 05:32:00,56.0,56.0,-100.00,SW,234,4.0,5.0,97,0.00,,,0.00,,2013-01-13 10:32:00,
2013-01-13 05:42:00,56.0,56.0,-100.00,SSW,205,5.0,7.0,97,0.00,,,0.00,,2013-01-13 10:42:00,
2013-01-13 05:53:00,56.0,56.0,-100.00,South,189,7.0,9.0,97,0.00,,,0.00,,2013-01-13 10:53:00,
2013-01-13 06:02:00,56.0,56.0,-100.00,South,189,7.0,9.0,97,0.00,,,0.00,,2013-01-13 11:02:00,
2013-01-13 06:12:00,56.0,56.0,-100.00,South,189,7.0,9.0,97,0.00,,,0.00,,2013-01-13 11:12:00,
2013-01-13 06:22:00,56.0,56.0,-100.00,SSW,199,7.0,10.0,97,0.00,,,0.00,,2013-01-13 11:22:00,
2013-01-13 06:33:00,56.0,55.0,-100.00,SSW,200,6.0,9.0,97,0.00,,,0.00,,2013-01-13 11:33:00,
2013-01-13 06:42:00,56.0,55.0,-100.00,SSW,200,6.0,9.0,97,0.00,,,0.00,,2013-01-13 11:42:00,
2013-01-13 06:53:00,56.0,55.0,-100.00,SSW,196,7.0,9.0,97,0.00,,,0.00,,2013-01-13 11:53:00,
2013-01-13 07:03:00,56.0,55.0,-100.00,SSW,196,7.0,9.0,97,0.00,,,0.00,,2013-01-13 12:03:00,
2013-01-13 07:12:00,56.0,55.0,-100.00,SSW,196,7.0,9.0,97,0.00,,,0.00,,2013-01-13 12:12:00,
2013-01-13 07:22:00,56.0,55.0,-100.00,SSW,196,7.0,9.0,97,0.00,,,0.00,,2013-01-13 12:22:00,
2013-01-13 07:33:00,56.0,55.0,-100.00,SW,217,4.0,6.0,97,0.00,,,0.00,,2013-01-13 12:33:00,
2013-01-13 07:42:00,56.0,55.0,-100.00,SW,217,4.0,6.0,97,0.00,,,0.00,,2013-01-13 12:42:00,
2013-01-13 07:53:00,56.0,55.0,-100.00,SSW,192,4.0,7.0,97,0.00,,,0.00,,2013-01-13 12:53:00,
2013-01-13 08:03:00,56.0,55.0,-100.00,SSW,192,4.0,7.0,97,0.00,,,0.00,,2013-01-13 13:03:00,
2013-01-13 08:12:00,56.0,55.0,-100.00,SSW,192,4.0,7.0,97,0.00,,,0.00,,2013-01-13 13:12:00,
2013-01-13 08:22:00,56.0,55.0,-100.00,South,189,5.0,6.0,97,0.00,,,0.00,,2013-01-13 13:22:00,
2013-01-13 08:33:00,56.0,55.0,-100.00,SSW,200,3.0,5.0,98,0.00,,,0.00,,2013-01-13 13:33:00,
2013-01-13 08:42:00,56.0,55.0,-100.00,SSW,200,3.0,5.0,98,0.00,,,0.00,,2013-01-13 13:42:00,
2013-01-13 08:53:00,56.0,55.0,-100.00,SW,224,2.0,2.0,98,0.00,,,0.00,,2013-01-13 13:53:00,
2013-01-13 09:03:00,56.0,55.0,-100.00,SW,224,2.0,2.0,98,0.00,,,0.00,,2013-01-13 14:03:00,
2013-01-13 09:13:00,56.0,55.0,-100.00,SW,224,2.0,2.0,98,0.00,,,0.00,,2013-01-13 14:13:00,
2013-01-13 09:22:00,56.0,55.0,-100.00,West,271,3.0,4.0,98,0.00,,,0.00,,2013-01-13 14:22:00,
2013-01-13 09:33:00,56.0,55.0,-100.00,West,271,3.0,4.0,98,0.00,,,0.00,,2013-01-13 14:33:00,
2013-01-13 09:43:00,56.0,55.0,-100.00,West,271,3.0,4.0,98,0.00,,,0.00,,2013-01-13 14:43:00,
2013-01-13 09:53:00,56.0,56.0,-100.00,SE,145,5.0,7.0,98,0.00,,,0.00,,2013-01-13 14:53:00,
2013-01-13 10:03:00,56.0,56.0,-100.00,SE,145,5.0,7.0,98,0.00,,,0.00,,2013-01-13 15:03:00,
2013-01-13 10:13:00,56.0,56.0,-100.00,SE,145,5.0,7.0,98,0.00,,,0.00,,2013-01-13 15:13:00,
2013-01-13 10:23:00,57.0,56.0,-100.00,SSE,165,4.0,6.0,97,0.00,,,0.00,,2013-01-13 15:23:00,
2013-01-13 10:33:00,57.0,56.0,-100.00,SSE,165,4.0,6.0,97,0.00,,,0.00,,2013-01-13 15:33:00,
2013-01-13 10:43:00,59.0,58.0,-100.00,South,184,2.0,3.0,97,0.00,,,0.00,,2013-01-13 15:43:00,
2013-01-13 10:53:00,59.0,58.0,-100.00,South,184,2.0,3.0,97,0.00,,,0.00,,2013-01-13 15:53:00,
2013-01-13 11:04:00,61.0,59.0,-100.00,SW,219,2.0,4.0,94,0.00,,,0.00,,2013-01-13 16:04:00,
2013-01-13 11:13:00,61.0,59.0,-100.00,SW,219,2.0,4.0,94,0.00,,,0.00,,2013-01-13 16:13:00,
2013-01-13 11:23:00,63.0,57.0,-100.00,South,181,6.0,8.0,81,0.00,,,0.00,,2013-01-13 16:23:00,
2013-01-13 11:33:00,63.0,57.0,-100.00,South,181,6.0,8.0,81,0.00,,,0.00,,2013-01-13 16:33:00,
2013-01-13 11:43:00,64.0,56.0,-100.00,South,189,8.0,10.0,75,0.00,,,0.00,,2013-01-13 16:43:00,
2013-01-13 11:53:00,64.0,56.0,-100.00,South,189,8.0,10.0,75,0.00,,,0.00,,2013-01-13 16:53:00,
2013-01-13 12:03:00,65.0,55.0,-100.00,South,178,10.0,13.0,71,0.00,,,0.00,,2013-01-13 17:03:00,
2013-01-13 12:13:00,65.0,55.0,-100.00,South,178,10.0,13.0,71,0.00,,,0.00,,2013-01-13 17:13:00,
2013-01-13 12:22:00,66.0,55.0,-100.00,South,184,10.0,12.0,67,0.00,,,0.00,,2013-01-13 17:22:00,
2013-01-13 12:33:00,66.0,55.0,-100.00,South,184,10.0,12.0,67,0.00,,,0.00,,2013-01-13 17:33:00,
2013-01-13 12:43:00,66.0,55.0,-100.00,SSW,193,12.0,16.0,67,0.00,,,0.00,,2013-01-13 17:43:00,
2013-01-13 12:53:00,66.0,55.0,-100.00,SSW,193,12.0,16.0,67,0.00,,,0.00,,2013-01-13 17:53:00,
2013-01-13 13:03:00,66.0,55.0,-100.00,SSW,193,12.0,16.0,67,0.00,,,0.00,,2013-01-13 18:03:00,
2013-01-13 13:23:00,66.0,55.0,-100.00,South,175,11.0,16.0,67,0.00,,,0.00,,2013-01-13 18:23:00,
2013-01-13 13:33:00,66.0,55.0,-100.00,South,175,11.0,16.0,67,0.00,,,0.00,,2013-01-13 18:33:00,
2013-01-13 13:43:00,66.0,55.0,-100.00,South,175,11.0,16.0,67,0.00,,,0.00,,2013-01-13 18:43:00,
2013-01-13 13:53:00,67.0,54.0,-100.00,South,189,10.0,12.0,62,0.00,,,0.00,,2013-01-13 18:53:00,
2013-01-13 14:03:00,67.0,54.0,-100.00,South,189,10.0,12.0,62,0.00,,,0.00,,2013-01-13 19:03:00,
2013-01-13 14:12:00,67.0,54.0,-100.00,South,189,10.0,12.0,62,0.00,,,0.00,,2013-01-13 19:12:00,
2013-01-13 14:23:00,68.0,54.0,-100.00,SSW,196,9.0,12.0,61,0.00,,,0.00,,2013-01-13 19:23:00,
2013-01-13 14:33:00,68.0,54.0,-100.00,SSW,196,9.0,12.0,61,0.00,,,0.00,,2013-01-13 19:33:00,
2013-01-13 14:43:00,69.0,54.0,-100.00,South,172,9.0,12.0,59,0.00,,,0.00,,2013-01-13 19:43:00,
2013-01-13 14:53:00,69.0,54.0,-100.00,South,172,9.0,12.0,59,0.00,,,0.00,,2013-01-13 19:53:00,
2013-01-13 15:03:00,69.0,54.0,-100.00,South,178,8.0,11.0,60,0.00,,,0.00,,2013-01-13 20:03:00,
2013-01-13 15:12:00,69.0,54.0,-100.00,South,178,8.0,11.0,60,0.00,,,0.00,,2013-01-13 20:12:00,
2013-01-13 15:22:00,68.0,56.0,-100.00,SSE,151,7.0,8.0,67,0.00,,,-99.99,,2013-01-13 20:22:00,
2013-01-13 15:33:00,68.0,56.0,-100.00,SSE,151,7.0,8.0,67,0.00,,,-99.99,,2013-01-13 20:33:00,
2013-01-13 15:43:00,67.0,57.0,-100.00,SSE,157,9.0,11.0,68,0.00,,,-99.99,,2013-01-13 20:43:00,
2013-01-13 15:53:00,67.0,57.0,-100.00,SSE,157,9.0,11.0,68,0.00,,,-99.99,,2013-01-13 20:53:00,
2013-01-13 16:03:00,68.0,57.0,-100.00,South,172,6.0,9.0,68,0.00,,,-99.99,,2013-01-13 21:03:00,
2013-01-13 16:13:00,68.0,57.0,-100.00,South,172,6.0,9.0,68,0.00,,,-99.99,,2013-01-13 21:13:00,
2013-01-13 16:23:00,68.0,57.0,-100.00,SSE,161,6.0,9.0,69,0.00,,,-99.99,,2013-01-13 21:23:00,
2013-01-13 16:33:00,68.0,57.0,-100.00,SSE,161,6.0,9.0,69,0.00,,,-99.99,,2013-01-13 21:33:00,
2013-01-13 16:43:00,68.0,57.0,-100.00,SSE,154,8.0,10.0,69,0.00,,,-99.99,,2013-01-13 21:43:00,
2013-01-13 16:53:00,68.0,57.0,-100.00,SSE,154,8.0,10.0,69,0.00,,,-99.99,,2013-01-13 21:53:00,
2013-01-13 17:03:00,68.0,56.0,-100.00,South,181,11.0,16.0,66,0.00,,,-99.99,,2013-01-13 22:03:00,
2013-01-13 17:13:00,68.0,56.0,-100.00,South,181,11.0,16.0,66,0.00,,,-99.99,,2013-01-13 22:13:00,
2013-01-13 17:23:00,67.0,55.0,-100.00,South,172,9.0,12.0,67,0.00,,,-99.99,,2013-01-13 22:23:00,
2013-01-13 17:33:00,67.0,55.0,-100.00,South,172,9.0,12.0,67,0.00,,,-99.99,,2013-01-13 22:33:00,
2013-01-13 17:43:00,66.0,55.0,-100.00,SSE,167,7.0,9.0,69,0.00,,,-99.99,,2013-01-13 22:43:00,
2013-01-13 17:53:00,66.0,55.0,-100.00,SSE,167,7.0,9.0,69,0.00,,,-99.99,,2013-01-13 22:53:00,
2013-01-13 18:03:00,65.0,55.0,-100.00,SSE,162,9.0,10.0,69,0.00,,,-99.99,,2013-01-13 23:03:00,
2013-01-13 18:12:00,65.0,55.0,-100.00,SSE,162,9.0,10.0,69,0.00,,,-99.99,,2013-01-13 23:12:00,
2013-01-13 18:23:00,65.0,55.0,-100.00,SSE,162,9.0,10.0,69,0.00,,,-99.99,,2013-01-13 23:23:00,
2013-01-13 18:43:00,64.0,55.0,-100.00,South,181,10.0,14.0,72,0.00,,,-99.99,,2013-01-13 23:43:00,
2013-01-13 18:53:00,64.0,55.0,-100.00,South,178,11.0,14.0,73,0.00,,,-99.99,,2013-01-13 23:53:00,
2013-01-13 19:03:00,64.0,55.0,-100.00,South,178,11.0,14.0,73,0.00,,,-99.99,,2013-01-14 00:03:00,
2013-01-13 19:13:00,64.0,55.0,-100.00,South,178,11.0,14.0,73,0.00,,,-99.99,,2013-01-14 00:13:00,
2013-01-13 19:23:00,64.0,56.0,-100.00,South,175,9.0,11.0,74,0.00,,,-99.99,,2013-01-14 00:23:00,
2013-01-13 19:33:00,64.0,56.0,-100.00,South,175,9.0,11.0,74,0.00,,,-99.99,,2013-01-14 00:33:00,
2013-01-13 19:43:00,64.0,56.0,-100.00,South,175,9.0,11.0,74,0.00,,,-99.99,,2013-01-14 00:43:00,
2013-01-13 20:03:00,64.0,56.0,-100.00,SSE,168,6.0,8.0,75,0.00,,,-99.99,,2013-01-14 01:03:00,
2013-01-13 20:13:00,64.0,56.0,-100.00,SSE,168,6.0,8.0,75,0.00,,,-99.99,,2013-01-14 01:13:00,
2013-01-13 20:22:00,63.0,56.0,-100.00,SSW,203,5.0,7.0,77,0.00,,,-99.99,,2013-01-14 01:22:00,
2013-01-13 20:33:00,63.0,56.0,-100.00,SSW,203,5.0,7.0,77,0.00,,,-99.99,,2013-01-14 01:33:00,
2013-01-13 20:42:00,63.0,56.0,-100.00,SSW,202,4.0,6.0,77,0.00,,,-99.99,,2013-01-14 01:42:00,
2013-01-13 20:53:00,62.0,56.0,-100.00,SSW,200,6.0,8.0,79,0.00,,,-99.99,,2013-01-14 01:53:00,
2013-01-13 21:03:00,62.0,56.0,-100.00,SSW,200,6.0,8.0,79,0.00,,,-99.99,,2013-01-14 02:03:00,
2013-01-13 21:12:00,62.0,56.0,-100.00,SSW,200,6.0,8.0,79,0.00,,,-99.99,,2013-01-14 02:12:00,
2013-01-13 21:22:00,62.0,56.0,-100.00,South,191,5.0,7.0,80,0.00,,,-99.99,,2013-01-14 02:22:00,
2013-01-13 21:33:00,62.0,56.0,-100.00,South,191,5.0,7.0,80,0.00,,,-99.99,,2013-01-14 02:33:00,
2013-01-13 21:42:00,60.0,55.0,-100.00,SW,227,1.0,1.0,84,0.00,,,-99.99,,2013-01-14 02:42:00,
2013-01-13 21:53:00,60.0,55.0,-100.00,SSE,164,2.0,3.0,82,0.00,,,-99.99,,2013-01-14 02:53:00,
2013-01-13 22:03:00,60.0,55.0,-100.00,SSE,164,2.0,3.0,82,0.00,,,-99.99,,2013-01-14 03:03:00,
2013-01-13 22:12:00,60.0,55.0,-100.00,SSE,164,2.0,3.0,82,0.00,,,-99.99,,2013-01-14 03:12:00,
2013-01-13 22:22:00,60.0,55.0,-100.00,South,169,3.0,4.0,85,0.00,,,-99.99,,2013-01-14 03:22:00,
2013-01-13 22:33:00,60.0,55.0,-100.00,South,169,3.0,4.0,85,0.00,,,-99.99,,2013-01-14 03:33:00,
2013-01-13 22:42:00,61.0,56.0,-100.00,South,191,7.0,9.0,82,0.00,,,-99.99,,2013-01-14 03:42:00,
2013-01-13 22:53:00,63.0,55.0,-100.00,South,189,10.0,12.0,77,0.00,,,-99.99,,2013-01-14 03:53:00,
2013-01-13 23:03:00,63.0,55.0,-100.00,South,189,10.0,12.0,77,0.00,,,-99.99,,2013-01-14 04:03:00,
2013-01-13 23:12:00,63.0,55.0,-100.00,South,189,10.0,12.0,77,0.00,,,-99.99,,2013-01-14 04:12:00,
2013-01-13 23:22:00,63.0,55.0,-100.00,South,186,10.0,12.0,76,0.00,,,-99.99,,2013-01-14 04:22:00,
2013-01-13 23:32:00,63.0,55.0,-100.00,South,186,10.0,12.0,76,0.00,,,-99.99,,2013-01-14 04:32:00,
2013-01-13 23:42:00,62.0,55.0,-100.00,SSW,192,7.0,11.0,75,0.00,,,-99.99,,2013-01-14 04:42:00,
2013-01-13 23:53:00,62.0,55.0,-100.00,SSW,192,7.0,11.0,75,0.00,,,-99.99,,2013-01-14 04:53:00,